createdAt,value
2023-03-08T00:02:22.899Z,15.68
2023-03-08T00:04:49.832Z,16.67
2023-03-08T00:07:16.787Z,15.25
2023-03-08T00:09:43.752Z,15.63
2023-03-08T00:12:10.909Z,15.93
2023-03-08T00:14:38.005Z,14.02
2023-03-08T00:17:05.788Z,15.38
2023-03-08T00:19:32.712Z,16.98
2023-03-08T00:21:59.736Z,17.35
2023-03-08T00:24:26.756Z,16.30
2023-03-08T00:26:53.840Z,15.95
2023-03-08T00:29:20.836Z,15.40
2023-03-08T00:31:47.930Z,16.20
2023-03-08T00:34:15.246Z,15.48
2023-03-08T00:36:42.426Z,17.42
2023-03-08T00:39:11.442Z,17.13
2023-03-08T00:41:38.949Z,17.75
2023-03-08T00:44:06.079Z,17.73
2023-03-08T00:46:33.172Z,17.63
2023-03-08T00:49:00.329Z,19.33
2023-03-08T00:51:27.766Z,17.17
2023-03-08T00:53:54.816Z,16.70
2023-03-08T00:56:22.229Z,17.98
2023-03-08T00:58:49.262Z,16.40
2023-03-08T01:01:19.104Z,16.38
2023-03-08T01:03:48.682Z,15.43
2023-03-08T01:06:16.530Z,17.27
2023-03-08T01:08:44.627Z,16.70
2023-03-08T01:11:24.125Z,17.08
2023-03-08T01:13:52.815Z,16.80
2023-03-08T01:16:26.344Z,17.23
2023-03-08T01:18:54.259Z,18.55
2023-03-08T01:21:22.171Z,17.00
2023-03-08T01:23:49.791Z,18.40
2023-03-08T01:26:25.821Z,17.27
2023-03-08T01:28:56.425Z,16.50
2023-03-08T01:31:29.432Z,18.65
2023-03-08T01:33:57.840Z,17.38
2023-03-08T01:36:27.861Z,18.48
2023-03-08T01:38:55.582Z,18.27
2023-03-08T01:41:28.894Z,18.08
2023-03-08T01:43:56.708Z,17.67
2023-03-08T01:46:30.884Z,17.27
2023-03-08T01:49:27.304Z,17.88
2023-03-08T01:52:14.745Z,17.10
2023-03-08T01:55:09.985Z,17.80
2023-03-08T01:57:45.914Z,16.42
2023-03-08T02:00:19.408Z,18.45
2023-03-08T02:03:10.643Z,18.42
2023-03-08T02:05:40.293Z,18.40
2023-03-08T02:08:14.641Z,17.67
2023-03-08T02:10:43.976Z,16.95
2023-03-08T02:13:11.459Z,16.40
2023-03-08T02:15:42.076Z,16.73
2023-03-08T02:18:09.177Z,19.23
2023-03-08T02:20:38.354Z,17.67
2023-03-08T02:23:17.856Z,16.92
2023-03-08T02:26:03.666Z,17.17
2023-03-08T02:28:32.450Z,15.55
2023-03-08T02:30:59.443Z,14.38
2023-03-08T02:33:26.498Z,14.93
2023-03-08T02:35:54.087Z,15.75
2023-03-08T02:38:22.093Z,15.32
2023-03-08T02:40:51.645Z,16.15
2023-03-08T02:43:19.558Z,14.75
2023-03-08T02:45:46.687Z,17.90
2023-03-08T02:48:14.816Z,20.02
2023-03-08T02:50:41.863Z,41.22
2023-03-08T02:53:09.076Z,21.63
2023-03-08T02:55:36.504Z,26.17
2023-03-08T02:58:10.213Z,19.13
2023-03-08T03:00:38.284Z,16.75
2023-03-08T03:03:05.578Z,20.30
2023-03-08T03:05:32.639Z,18.42
2023-03-08T03:08:02.351Z,16.77
2023-03-08T03:10:30.158Z,15.13
2023-03-08T03:12:57.313Z,16.25
2023-03-08T03:15:28.430Z,15.10
2023-03-08T03:17:59.061Z,14.98
2023-03-08T03:20:26.333Z,14.13
2023-03-08T03:22:53.334Z,13.38
2023-03-08T03:25:25.761Z,12.65
2023-03-08T03:27:54.992Z,13.35
2023-03-08T03:30:22.719Z,12.15
2023-03-08T03:32:50.457Z,12.68
2023-03-08T03:35:22.857Z,12.25
2023-03-08T03:37:50.246Z,13.07
2023-03-08T03:40:17.473Z,13.23
2023-03-08T03:42:49.599Z,13.30
2023-03-08T03:45:16.750Z,13.02
2023-03-08T03:47:43.797Z,12.63
2023-03-08T03:50:11.650Z,13.27
2023-03-08T03:52:49.612Z,12.93
2023-03-08T03:55:16.896Z,13.52
2023-03-08T03:57:45.071Z,13.40
2023-03-08T04:00:16.402Z,13.52
2023-03-08T04:02:50.931Z,12.93
2023-03-08T04:05:19.509Z,13.85
2023-03-08T04:07:50.367Z,13.18
2023-03-08T04:10:18.974Z,13.23
2023-03-08T04:12:50.422Z,13.02
2023-03-08T04:15:19.207Z,11.90
2023-03-08T04:17:46.311Z,13.93
2023-03-08T04:20:14.575Z,13.10
2023-03-08T04:22:46.833Z,11.85
2023-03-08T04:25:20.408Z,11.55
2023-03-08T04:27:54.034Z,11.13
2023-03-08T04:30:21.805Z,10.00
2023-03-08T04:32:49.250Z,11.00
2023-03-08T04:35:16.719Z,10.35
2023-03-08T04:37:47.724Z,9.50
2023-03-08T04:40:17.930Z,10.38
2023-03-08T04:42:53.991Z,10.95
2023-03-08T04:45:26.065Z,10.25
2023-03-08T04:47:55.626Z,10.35
2023-03-08T04:50:22.723Z,10.93
2023-03-08T04:52:50.553Z,9.73
2023-03-08T04:55:18.371Z,9.73
2023-03-08T04:57:46.632Z,10.73
2023-03-08T05:00:14.034Z,10.55
2023-03-08T05:02:42.829Z,10.25
2023-03-08T05:05:14.616Z,10.50
2023-03-08T05:07:42.503Z,8.85
2023-03-08T05:10:10.156Z,9.57
2023-03-08T05:12:37.140Z,9.80
2023-03-08T05:15:04.870Z,8.32
2023-03-08T05:17:31.947Z,9.25
2023-03-08T05:19:59.007Z,8.38
2023-03-08T05:22:37.127Z,8.57
2023-03-08T05:25:08.527Z,8.25
2023-03-08T05:27:36.709Z,7.57
2023-03-08T05:30:06.147Z,7.20
2023-03-08T05:32:33.249Z,8.98
2023-03-08T05:35:01.210Z,7.18
2023-03-08T05:37:34.113Z,7.18
2023-03-08T05:40:06.366Z,8.38
2023-03-08T05:42:36.481Z,8.88
2023-03-08T05:45:03.950Z,8.02
2023-03-08T05:47:35.639Z,8.65
2023-03-08T05:50:03.871Z,7.55
2023-03-08T05:52:34.901Z,7.70
2023-03-08T05:55:02.740Z,8.55
2023-03-08T05:57:29.729Z,8.68
2023-03-08T05:59:57.033Z,8.45
2023-03-08T06:02:24.163Z,8.23
2023-03-08T06:04:54.148Z,8.18
2023-03-08T06:07:23.661Z,8.35
2023-03-08T06:10:04.578Z,7.47
2023-03-08T06:12:31.613Z,7.97
2023-03-08T06:15:02.195Z,8.38
2023-03-08T06:17:34.125Z,8.20
2023-03-08T06:20:04.163Z,7.82
2023-03-08T06:22:34.225Z,7.70
2023-03-08T06:25:02.915Z,7.63
2023-03-08T06:27:34.281Z,9.38
2023-03-08T06:30:06.423Z,9.63
2023-03-08T06:32:35.837Z,9.25
2023-03-08T06:35:03.593Z,8.38
2023-03-08T06:37:36.666Z,9.77
2023-03-08T06:40:09.233Z,8.45
2023-03-08T06:42:41.402Z,9.98
2023-03-08T06:45:11.847Z,9.77
2023-03-08T06:47:38.867Z,9.23
2023-03-08T06:50:06.274Z,8.48
2023-03-08T06:52:37.790Z,8.57
2023-03-08T06:55:07.318Z,7.50
2023-03-08T06:57:34.339Z,7.18
2023-03-08T07:00:01.595Z,7.43
2023-03-08T07:02:28.645Z,6.82
2023-03-08T07:04:55.659Z,6.45
2023-03-08T07:07:22.757Z,6.55
2023-03-08T07:09:49.780Z,6.60
2023-03-08T07:12:16.737Z,6.38
2023-03-08T07:14:44.246Z,6.88
2023-03-08T07:17:11.193Z,7.03
2023-03-08T07:19:38.349Z,6.38
2023-03-08T07:22:05.330Z,7.07
2023-03-08T07:24:32.301Z,6.43
2023-03-08T07:26:59.245Z,7.20
2023-03-08T07:29:26.342Z,6.55
2023-03-08T07:31:53.623Z,6.40
2023-03-08T07:34:20.650Z,5.55
2023-03-08T07:36:47.668Z,5.75
2023-03-08T07:39:14.894Z,4.97
2023-03-08T07:41:41.839Z,4.72
2023-03-08T07:44:08.881Z,5.10
2023-03-08T07:46:35.920Z,4.90
2023-03-08T07:49:03.035Z,5.45
2023-03-08T07:51:30.001Z,4.72
2023-03-08T07:53:56.991Z,5.15
2023-03-08T07:56:23.937Z,5.55
2023-03-08T07:58:50.924Z,5.35
2023-03-08T08:01:17.976Z,4.63
2023-03-08T08:03:45.080Z,5.43
2023-03-08T08:06:12.162Z,5.20
2023-03-08T08:08:39.370Z,5.00
2023-03-08T08:11:15.489Z,5.15
2023-03-08T08:13:42.667Z,4.43
2023-03-08T08:16:10.227Z,4.85
2023-03-08T08:18:37.345Z,4.68
2023-03-08T08:21:09.425Z,4.70
2023-03-08T08:23:36.892Z,5.22
2023-03-08T08:26:13.400Z,6.32
2023-03-08T08:28:41.842Z,5.50
2023-03-08T08:31:12.136Z,5.32
2023-03-08T08:33:39.278Z,5.22
2023-03-08T08:36:17.133Z,5.38
2023-03-08T08:38:46.180Z,6.00
2023-03-08T08:41:15.598Z,7.53
2023-03-08T08:43:43.519Z,12.13
2023-03-08T08:46:10.897Z,6.70
2023-03-08T08:48:39.101Z,6.88
2023-03-08T08:51:07.402Z,7.32
2023-03-08T08:53:35.918Z,5.95
2023-03-08T08:56:26.323Z,7.63
2023-03-08T08:59:02.270Z,6.20
2023-03-08T09:01:32.300Z,8.23
2023-03-08T09:04:00.073Z,6.90
2023-03-08T09:06:28.679Z,8.32
2023-03-08T09:08:58.119Z,14.98
2023-03-08T09:11:26.463Z,8.00
2023-03-08T09:13:54.249Z,6.03
2023-03-08T09:16:24.097Z,6.30
2023-03-08T09:18:52.358Z,5.03
2023-03-08T09:21:19.501Z,5.53
2023-03-08T09:23:46.600Z,5.75
2023-03-08T09:26:14.145Z,10.27
2023-03-08T09:28:41.310Z,9.30
2023-03-08T09:31:12.990Z,6.00
2023-03-08T09:33:41.552Z,5.38
2023-03-08T09:36:09.322Z,5.45
2023-03-08T09:38:36.831Z,5.38
2023-03-08T09:41:31.157Z,8.60
2023-03-08T09:44:22.494Z,6.38
2023-03-08T09:47:17.242Z,7.57
2023-03-08T09:52:28.009Z,5.63
2023-03-08T09:54:55.154Z,5.30
2023-03-08T09:57:34.309Z,5.50
2023-03-08T10:00:08.942Z,4.95
2023-03-08T10:03:12.658Z,5.43
2023-03-08T10:05:52.369Z,5.10
2023-03-08T10:08:32.195Z,4.28
2023-03-08T10:11:14.994Z,4.30
2023-03-08T10:13:47.826Z,4.60
2023-03-08T10:16:28.098Z,5.00
2023-03-08T10:19:18.924Z,4.30
2023-03-08T10:21:47.789Z,5.35
2023-03-08T10:24:34.382Z,6.28
2023-03-08T10:27:15.714Z,5.78
2023-03-08T10:29:49.626Z,8.27
2023-03-08T10:32:16.855Z,5.68
2023-03-08T10:34:44.010Z,7.63
2023-03-08T10:37:11.058Z,7.13
2023-03-08T10:39:47.747Z,7.32
2023-03-08T10:42:16.748Z,6.55
2023-03-08T10:45:12.759Z,6.65
2023-03-08T10:47:40.030Z,6.05
2023-03-08T10:50:14.670Z,6.50
2023-03-08T10:52:42.169Z,6.90
2023-03-08T10:55:36.988Z,7.32
2023-03-08T10:58:04.683Z,6.40
2023-03-08T11:00:37.768Z,6.88
2023-03-08T11:03:16.415Z,7.03
2023-03-08T11:05:53.024Z,6.65
2023-03-08T11:08:24.074Z,6.30
2023-03-08T11:11:04.535Z,7.13
2023-03-08T11:13:47.118Z,6.72
2023-03-08T11:16:38.172Z,8.02
2023-03-08T11:19:23.297Z,7.32
2023-03-08T11:22:15.128Z,10.82
2023-03-08T11:25:03.912Z,10.13
2023-03-08T11:27:49.087Z,8.18
2023-03-08T11:30:51.449Z,10.07
2023-03-08T11:33:21.594Z,9.13
2023-03-08T11:35:59.258Z,8.70
2023-03-08T11:38:28.745Z,8.55
2023-03-08T11:41:42.957Z,9.73
2023-03-08T11:44:34.713Z,8.43
2023-03-08T11:47:29.369Z,9.57
2023-03-08T11:52:53.809Z,22.00
2023-03-08T11:55:26.633Z,12.13
2023-03-08T11:58:51.865Z,10.50
2023-03-08T12:01:31.898Z,11.82
2023-03-08T12:04:14.246Z,10.27
2023-03-08T12:06:45.521Z,8.80
2023-03-08T12:09:20.642Z,10.13
2023-03-08T12:12:08.892Z,9.07
2023-03-08T12:14:49.398Z,10.00
2023-03-08T12:17:32.026Z,8.75
2023-03-08T12:19:59.420Z,9.10
2023-03-08T12:22:34.147Z,11.18
2023-03-08T12:25:06.991Z,9.43
2023-03-08T12:27:46.925Z,14.05
2023-03-08T12:30:32.460Z,9.25
2023-03-08T12:33:04.351Z,10.63
2023-03-08T12:35:49.960Z,11.27
2023-03-08T12:38:19.782Z,11.15
2023-03-08T12:40:51.854Z,13.05
2023-03-08T12:43:21.925Z,16.10
2023-03-08T12:46:18.526Z,13.35
2023-03-08T12:48:45.571Z,12.80
2023-03-08T12:51:12.509Z,14.20
2023-03-08T12:53:51.227Z,18.52
2023-03-08T12:56:30.392Z,15.50
2023-03-08T12:59:00.550Z,15.57
2023-03-08T13:01:35.726Z,16.17
2023-03-08T13:04:05.631Z,22.70
2023-03-08T13:06:54.191Z,16.45
2023-03-08T13:09:30.441Z,17.45
2023-03-08T13:12:06.697Z,21.63
2023-03-08T13:14:41.844Z,26.45
2023-03-08T13:17:30.618Z,18.30
2023-03-08T13:20:01.218Z,20.58
2023-03-08T13:22:31.048Z,25.13
2023-03-08T13:25:28.808Z,17.70
2023-03-08T13:28:06.885Z,16.60
2023-03-08T13:30:37.749Z,21.27
2023-03-08T13:33:13.991Z,24.88
2023-03-08T13:35:41.528Z,17.33
2023-03-08T13:38:22.354Z,21.77
2023-03-08T13:40:57.667Z,17.23
2023-03-08T13:43:27.638Z,17.48
2023-03-08T13:45:57.902Z,21.90
2023-03-08T13:48:29.593Z,21.05
2023-03-08T13:50:58.211Z,15.48
2023-03-08T13:53:30.435Z,18.85
2023-03-08T13:56:01.569Z,19.52
2023-03-08T13:58:31.621Z,16.33
2023-03-08T14:01:03.381Z,19.63
2023-03-08T14:03:32.664Z,19.83
2023-03-08T14:05:59.848Z,22.42
2023-03-08T14:08:28.124Z,17.00
2023-03-08T14:11:01.776Z,21.00
2023-03-08T14:13:33.565Z,19.73
2023-03-08T14:16:05.875Z,18.90
2023-03-08T14:18:41.891Z,12.48
2023-03-08T14:21:21.046Z,10.75
2023-03-08T14:24:02.952Z,13.13
2023-03-08T14:26:37.941Z,12.00
2023-03-08T14:29:24.403Z,14.40
2023-03-08T14:32:01.740Z,12.90
2023-03-08T14:34:33.848Z,8.45
2023-03-08T14:37:24.313Z,10.70
2023-03-08T14:39:56.094Z,7.20
2023-03-08T14:42:36.661Z,6.72
2023-03-08T14:45:16.713Z,5.50
2023-03-08T14:47:54.170Z,5.28
2023-03-08T14:50:34.593Z,4.68
2023-03-08T14:53:03.165Z,5.55
2023-03-08T14:55:35.560Z,5.38
2023-03-08T14:58:08.611Z,5.22
2023-03-08T15:00:36.127Z,5.93
2023-03-08T15:03:03.743Z,5.82
2023-03-08T15:05:31.267Z,5.80
2023-03-08T15:07:59.809Z,5.18
2023-03-08T15:10:33.368Z,5.57
2023-03-08T15:13:01.437Z,5.82
2023-03-08T15:15:28.463Z,6.47
2023-03-08T15:17:56.478Z,5.43
2023-03-08T15:20:25.143Z,5.63
2023-03-08T15:22:59.086Z,6.15
2023-03-08T15:25:27.562Z,6.28
2023-03-08T15:27:54.790Z,6.28
2023-03-08T15:30:26.822Z,6.35
2023-03-08T15:32:54.755Z,5.55
2023-03-08T15:35:22.411Z,6.72
2023-03-08T15:37:49.682Z,6.22
2023-03-08T15:40:24.807Z,5.35
2023-03-08T15:42:51.928Z,4.97
2023-03-08T15:45:19.119Z,5.43
2023-03-08T15:47:59.505Z,6.35
2023-03-08T15:50:27.592Z,4.30
2023-03-08T15:52:55.708Z,4.38
2023-03-08T15:55:24.740Z,3.97
2023-03-08T15:57:52.164Z,5.32
2023-03-08T16:00:20.988Z,3.75
2023-03-08T16:02:48.555Z,3.53
2023-03-08T16:05:16.582Z,3.65
2023-03-08T16:07:43.580Z,4.18
2023-03-08T16:10:13.809Z,4.53
2023-03-08T16:12:41.700Z,4.57
2023-03-08T16:15:09.792Z,3.90
2023-03-08T16:17:37.145Z,3.60
2023-03-08T16:20:06.494Z,3.55
2023-03-08T16:22:34.714Z,3.47
2023-03-08T16:25:01.773Z,3.63
2023-03-08T16:27:33.187Z,2.70
2023-03-08T16:30:01.671Z,3.75
2023-03-08T16:32:28.921Z,3.33
2023-03-08T16:35:00.729Z,2.90
2023-03-08T16:37:28.398Z,2.63
2023-03-08T16:39:57.564Z,3.15
2023-03-08T16:42:25.116Z,3.33
2023-03-08T16:44:54.194Z,2.75
2023-03-08T16:47:22.589Z,3.10
2023-03-08T16:49:49.891Z,3.15
2023-03-08T16:52:18.024Z,3.05
2023-03-08T16:54:45.356Z,2.72
2023-03-08T16:57:19.013Z,3.25
2023-03-08T16:59:47.350Z,3.13
2023-03-08T17:02:20.202Z,3.08
2023-03-08T17:04:48.403Z,3.65
2023-03-08T17:07:16.203Z,3.17
2023-03-08T17:09:43.286Z,3.25
2023-03-08T17:12:10.681Z,3.50
2023-03-08T17:14:38.027Z,3.85
2023-03-08T17:17:05.574Z,2.53
2023-03-08T17:19:32.696Z,2.50
2023-03-08T17:21:59.755Z,2.90
2023-03-08T17:24:28.277Z,2.35
2023-03-08T17:26:55.865Z,2.85
2023-03-08T17:29:22.987Z,2.47
2023-03-08T17:31:50.923Z,2.90
2023-03-08T17:34:18.493Z,3.05
2023-03-08T17:36:46.832Z,3.00
2023-03-08T17:39:14.362Z,3.80
2023-03-08T17:41:42.939Z,3.40
2023-03-08T17:44:09.977Z,2.47
2023-03-08T17:46:37.058Z,2.38
2023-03-08T17:49:04.334Z,2.10
2023-03-08T17:51:32.449Z,2.22
2023-03-08T17:54:01.124Z,2.25
2023-03-08T17:56:31.398Z,2.83
2023-03-08T17:59:00.290Z,2.70
2023-03-08T18:01:29.904Z,2.83
2023-03-08T18:03:58.134Z,3.10
2023-03-08T18:06:28.968Z,3.33
2023-03-08T18:09:00.038Z,2.83
2023-03-08T18:11:27.980Z,4.05
2023-03-08T18:13:55.668Z,3.63
2023-03-08T18:16:23.861Z,4.75
2023-03-08T18:18:51.334Z,4.15
2023-03-08T18:21:19.810Z,4.85
2023-03-08T18:23:47.486Z,4.00
2023-03-08T18:26:16.250Z,4.35
2023-03-08T18:28:43.218Z,6.30
2023-03-08T18:31:13.476Z,7.55
2023-03-08T18:33:40.556Z,5.32
2023-03-08T18:36:07.917Z,5.55
2023-03-08T18:38:35.304Z,7.22
2023-03-08T18:41:23.018Z,7.47
2023-03-08T18:43:51.361Z,7.00
2023-03-08T18:46:18.749Z,6.57
2023-03-08T18:48:50.760Z,5.88
2023-03-08T18:51:17.944Z,10.77
2023-03-08T18:53:45.036Z,10.38
2023-03-08T18:56:12.139Z,8.70
2023-03-08T18:58:39.277Z,8.57
2023-03-08T19:01:12.381Z,7.97
2023-03-08T19:03:40.143Z,7.88
2023-03-08T19:06:07.644Z,7.38
2023-03-08T19:08:34.765Z,4.82
2023-03-08T19:11:14.415Z,6.72
2023-03-08T19:13:42.633Z,6.72
2023-03-08T19:16:31.905Z,7.43
2023-03-08T19:19:07.966Z,7.40
2023-03-08T19:21:38.267Z,7.70
2023-03-08T19:24:05.580Z,7.40
2023-03-08T19:26:36.031Z,6.18
2023-03-08T19:29:02.983Z,6.38
2023-03-08T19:31:30.502Z,6.40
2023-03-08T19:33:57.718Z,3.60
2023-03-08T19:36:24.874Z,4.35
2023-03-08T19:38:52.038Z,3.50
2023-03-08T19:41:19.060Z,4.07
2023-03-08T19:43:47.294Z,4.32
2023-03-08T19:46:17.847Z,3.60
2023-03-08T19:48:46.141Z,3.33
2023-03-08T19:51:18.024Z,3.42
2023-03-08T19:53:45.717Z,3.60
2023-03-08T19:56:17.883Z,2.75
2023-03-08T19:58:46.477Z,4.05
2023-03-08T20:01:16.812Z,4.68
2023-03-08T20:03:44.337Z,5.60
2023-03-08T20:06:13.465Z,5.07
2023-03-08T20:08:40.710Z,2.65
2023-03-08T20:11:08.583Z,3.67
2023-03-08T20:13:35.559Z,6.03
2023-03-08T20:16:02.507Z,7.70
2023-03-08T20:18:29.572Z,8.85
2023-03-08T20:20:58.945Z,4.80
2023-03-08T20:23:26.052Z,6.25
2023-03-08T20:25:53.114Z,7.28
2023-03-08T20:28:20.422Z,8.57
2023-03-08T20:30:48.556Z,7.57
2023-03-08T20:33:15.998Z,5.60
2023-03-08T20:35:43.241Z,3.88
2023-03-08T20:38:10.397Z,6.53
2023-03-08T20:40:39.622Z,6.93
2023-03-08T20:43:10.968Z,7.50
2023-03-08T20:45:45.653Z,7.60
2023-03-08T20:48:12.911Z,7.60
2023-03-08T20:50:40.170Z,8.35
2023-03-08T20:53:07.148Z,6.10
2023-03-08T20:55:34.269Z,9.98
2023-03-08T20:58:01.414Z,10.70
2023-03-08T21:00:28.403Z,7.20
2023-03-08T21:02:55.926Z,8.80
2023-03-08T21:05:23.071Z,8.75
2023-03-08T21:07:50.190Z,7.75
2023-03-08T21:10:17.528Z,11.57
2023-03-08T21:12:44.915Z,10.57
2023-03-08T21:15:12.277Z,8.23
2023-03-08T21:17:40.022Z,8.25
2023-03-08T21:20:09.277Z,12.18
2023-03-08T21:22:36.247Z,11.95
2023-03-08T21:25:03.403Z,9.98
2023-03-08T21:27:30.484Z,12.13
2023-03-08T21:29:57.570Z,19.67
2023-03-08T21:32:26.959Z,17.02
2023-03-08T21:34:54.879Z,17.27
2023-03-08T21:37:21.869Z,14.48
2023-03-08T21:39:48.904Z,10.75
2023-03-08T21:42:15.887Z,11.35
2023-03-08T21:44:42.937Z,10.05
2023-03-08T21:47:09.943Z,9.63
2023-03-08T21:49:37.046Z,7.43
2023-03-08T21:52:04.794Z,5.53
2023-03-08T21:54:32.336Z,4.20
2023-03-08T21:56:59.447Z,4.72
2023-03-08T21:59:27.807Z,4.40
2023-03-08T22:01:58.398Z,4.53
2023-03-08T22:04:26.708Z,5.13
2023-03-08T22:06:55.617Z,5.38
2023-03-08T22:09:23.360Z,6.18
2023-03-08T22:11:51.613Z,5.38
2023-03-08T22:14:18.770Z,6.47
2023-03-08T22:16:45.761Z,5.90
2023-03-08T22:19:12.784Z,6.72
2023-03-08T22:21:39.821Z,6.30
2023-03-08T22:24:06.932Z,6.82
2023-03-08T22:26:33.850Z,6.45
2023-03-08T22:29:01.000Z,6.22
2023-03-08T22:31:29.763Z,6.72
2023-03-08T22:33:57.016Z,6.00
2023-03-08T22:36:24.330Z,6.15
2023-03-08T22:38:51.348Z,6.32
2023-03-08T22:41:23.497Z,6.53
2023-03-08T22:43:51.582Z,5.63
2023-03-08T22:46:21.605Z,6.38
2023-03-08T22:48:49.632Z,6.65
2023-03-08T22:51:18.550Z,7.10
2023-03-08T22:53:45.595Z,7.25
2023-03-08T22:56:22.587Z,7.60
2023-03-08T22:58:50.218Z,8.00
2023-03-08T23:01:20.238Z,7.18
2023-03-08T23:03:49.549Z,6.55
2023-03-08T23:06:18.433Z,7.68
2023-03-08T23:08:46.112Z,7.32
2023-03-08T23:11:13.808Z,8.30
2023-03-08T23:13:41.706Z,7.90
2023-03-08T23:16:11.603Z,8.48
2023-03-08T23:18:38.939Z,7.78
2023-03-08T23:21:08.538Z,6.60
2023-03-08T23:23:36.156Z,7.90
2023-03-08T23:26:08.578Z,8.88
2023-03-08T23:28:36.438Z,9.88
2023-03-08T23:31:09.653Z,8.38
2023-03-08T23:33:36.976Z,10.05
2023-03-08T23:36:04.269Z,9.23
2023-03-08T23:38:31.364Z,9.05
2023-03-08T23:40:59.067Z,8.98
2023-03-08T23:43:26.178Z,8.88
2023-03-08T23:45:53.262Z,8.38
2023-03-08T23:48:20.271Z,9.68
2023-03-08T23:50:47.223Z,7.93
2023-03-08T23:53:14.288Z,10.10
2023-03-08T23:55:42.296Z,8.90
2023-03-08T23:58:09.396Z,8.57
